Terminal Aerodrome Forecast
Issued by NWS

Home | Current Version | Previous Version | Text Only | Print | Product List | Glossary On
Versions: 1 2 3 4 5 6 7 8 9 10 11 12 13 14 15 16 17 18 19 20
000
FTUS42 KFFC 292333
TAFFTY
TAF
KFTY 292333Z 3000/3024 17005KT P6SM BKN060
     FM300500 VRB03KT P6SM BKN035
     FM301100 23006KT 6SM -RA BR OVC012
     FM301300 25008KT 5SM -RA BR BKN008 OVC012
     FM301600 29012KT P6SM BKN035
     FM302000 30014KT P6SM FEW035=

USA.gov is the U.S. government's official web portal to all federal, state and local government web resources and services.